Saint-Gedeon, Canada
Current Conditions -  °F | °C
As of 9:00 AM on Monday 20 Oct 2014 (Local Time) from CYRJ Reporting Station
Broken Clouds Broken Clouds  
Wind Chill: 28°   Ceiling: 3000
Heat Index: 36°   Visibility: 40mi
Dew Point: 23°   Wind: 10mph
Humidity: 60%   Direction: 290°WNW
Pressure: 29.87"   Gusts: NA
Location:  48.48°N, 71.78°W
Report Text: CYRJ 201300Z 29009KT 270V340 40SM BKN030 02/M05 A2987 RMK SC7 SLP124
Loading
Personal Weather Stations






























Interactive Weather Map
Tropical Storm Tracking
New forecast layout! Learn more

10-Day Weather Forecast

Advertisements
Track Severe Weather on mobile